Página principal
METAR-TAF:

METAR-TAF

Aeroportos :

Dubai, Emirados Árabes Unidos

Aeroporto Internacional de Dubai

latitude: 25-15-10N, longitude: 055-21-52E, altura: 8 m

Observação actual do tempo

O boletim foi feito há 56 minutos, às 10:00 UTC
Vento 11 kt de nor-noroeste
Temperatura 34°C
Humidade 53%
Pressão 1009 hPa
Visibilidade 10 km ou mais
sem nuvens abaixo de 1500 metros e sem cumulonimbus

METAR: OMDB 181000Z 33011KT CAVOK 34/23 Q1009 NOSIG

Hora: 14:56 (10:56 UTC)

Previsão

O boletim foi feito há 6 horas e 1 minutos, às 04:55 UTC
Previsão válida de 18 às 06 UTC a 19 às 12 UTC
Vento 3 kt de es-sudeste
Visibilidade: 8000 m
Tornando-se
de 18 às 07 UTC a 18 às 09 UTC
Vento 10 kt de noroeste
Tornando-se
de 18 às 16 UTC a 18 às 18 UTC
Vento 7 kt de este
Tornando-se
de 19 às 08 UTC a 19 às 10 UTC
Vento 12 kt de norte

TAF: OMDB 180455Z 1806/1912 12003KT 8000 NSC BECMG 1807/1809 32010KT BECMG 1816/1818 09007KT BECMG 1908/1910 35012KT

Observações e previsões do tempo de mais de 4000 aeroportos (mensagens METAR e TAF).

As estações disponíveis são os pontos amarelos e vermelhos sobre o mapa.

Mova o rato sobre o mapa para ver o nome da estação.

Depois clique no ponto para visualizar as observações e previsões meteorológicas.

Para alterar o mapa : clique nos botões verdes com uma cruz preta para aumentar o zoom; no botão verde com uma pitada de zoom; ou nas setas verdes para mapas adjacentes.


METAR-TAF: